Time;durP1;ratioP1;P1;durP2;ratioP2;P2;SDS_P1;SDS_P2;PMS_P1;PMS_P2;Temp;Humidity;BMP_temperature;BMP_pressure;BME280_temperature;BME280_humidity;BME280_pressure;Samples;Min_cycle;Max_cycle;Signal;HPM_P1;HPM_P2
2022/09/13 00:00:48;;;;;;;7.93;6.37;;;15.90;99.90;;;;;;10403781;28;20713;-73
2022/09/13 00:05:51;;;;;;;8.07;7.10;;;15.80;99.90;;;;;;10400943;28;20229;-72
2022/09/13 00:10:52;;;;;;;8.20;7.40;;;15.70;99.90;;;;;;10406236;28;20227;-72
2022/09/13 00:15:53;;;;;;;8.20;7.03;;;15.60;99.90;;;;;;10401399;28;20706;-71
2022/09/13 00:21:07;;;;;;;8.70;7.47;;;15.60;99.90;;;;;;10399111;28;20223;-71
2022/09/13 00:26:10;;;;;;;7.93;7.13;;;15.50;99.90;;;;;;10410788;28;20647;-71
2022/09/13 00:31:11;;;;;;;8.53;7.03;;;15.60;99.90;;;;;;10399025;28;20229;-72
2022/09/13 00:36:14;;;;;;;10.17;7.03;;;15.60;99.90;;;;;;10409274;28;20276;-72
2022/09/13 00:41:17;;;;;;;7.87;7.07;;;15.60;99.90;;;;;;10406951;28;20218;-72
2022/09/13 00:46:27;;;;;;;9.30;8.27;;;15.50;99.90;;;;;;10405887;28;20230;-72
2022/09/13 00:51:28;;;;;;;8.70;7.80;;;15.40;99.90;;;;;;10399866;28;20667;-72
2022/09/13 00:56:39;;;;;;;8.67;6.77;;;15.40;99.90;;;;;;10402295;28;20226;-70
2022/09/13 01:01:46;;;;;;;8.83;7.73;;;15.40;99.90;;;;;;10405648;28;20227;-70
2022/09/13 01:06:47;;;;;;;7.90;7.10;;;15.30;99.90;;;;;;10396937;28;20323;-70
2022/09/13 01:12:03;;;;;;;9.07;7.20;;;15.40;99.90;;;;;;10398772;28;20302;-72
2022/09/13 01:17:04;;;;;;;8.53;7.00;;;15.30;99.90;;;;;;10394374;28;20220;-74
2022/09/13 01:22:28;;;;;;;8.07;7.27;;;15.20;99.90;;;;;;10396746;28;20306;-73
2022/09/13 01:27:32;;;;;;;9.23;7.47;;;15.20;99.90;;;;;;10404339;28;20230;-73
2022/09/13 01:33:02;;;;;;;9.33;7.63;;;15.10;99.90;;;;;;10402279;28;20571;-75
2022/09/13 01:38:17;;;;;;;9.03;6.93;;;15.10;99.90;;;;;;10395496;28;20220;-73
2022/09/13 01:43:47;;;;;;;8.87;7.10;;;15.00;99.90;;;;;;10401072;28;20308;-75
2022/09/13 01:49:15;;;;;;;8.60;6.60;;;15.00;99.90;;;;;;10402110;28;20212;-72
2022/09/13 01:54:31;;;;;;;8.50;6.63;;;14.80;99.90;;;;;;10399370;28;20239;-72
2022/09/13 01:59:34;;;;;;;8.47;7.57;;;14.80;99.90;;;;;;10407514;28;20266;-71
2022/09/13 02:04:41;;;;;;;7.97;7.17;;;14.70;99.90;;;;;;10396145;28;20215;-69
2022/09/13 02:09:49;;;;;;;11.60;8.00;;;14.70;99.90;;;;;;10397341;28;20213;-71
2022/09/13 02:15:08;;;;;;;11.27;7.00;;;14.70;99.90;;;;;;10393777;28;20257;-72
2022/09/13 02:20:22;;;;;;;8.43;7.37;;;14.70;99.90;;;;;;10394362;28;20907;-73
2022/09/13 02:25:25;;;;;;;7.40;6.70;;;14.60;99.90;;;;;;10394255;28;20206;-73
2022/09/13 02:30:33;;;;;;;8.70;6.40;;;14.40;99.90;;;;;;10405053;28;20212;-71
2022/09/13 02:35:39;;;;;;;8.17;6.67;;;14.20;99.90;;;;;;10396837;28;20227;-72
2022/09/13 02:40:45;;;;;;;7.57;6.70;;;14.10;99.90;;;;;;10399745;28;20295;-72
2022/09/13 02:46:09;;;;;;;7.47;6.27;;;14.10;99.90;;;;;;10418421;28;20229;-70
2022/09/13 02:51:39;;;;;;;8.40;6.23;;;14.20;99.90;;;;;;10401818;28;20220;-72
2022/09/13 02:56:45;;;;;;;6.47;5.73;;;14.10;99.90;;;;;;10389649;28;20213;-72
2022/09/13 03:01:56;;;;;;;6.87;6.00;;;14.10;99.90;;;;;;10395514;28;20258;-73
2022/09/13 03:06:57;;;;;;;6.00;5.47;;;14.10;99.90;;;;;;10392990;28;20640;-73
2022/09/13 03:12:16;;;;;;;7.10;5.70;;;14.10;99.90;;;;;;10390575;28;20320;-71
2022/09/13 03:17:48;;;;;;;6.10;5.60;;;14.20;99.90;;;;;;10393647;28;20236;-72
2022/09/13 03:22:57;;;;;;;6.43;5.43;;;14.30;99.90;;;;;;10398644;28;20643;-70
2022/09/13 03:28:17;;;;;;;6.67;5.87;;;14.40;99.90;;;;;;10406062;28;20220;-72
2022/09/13 03:33:28;;;;;;;8.27;5.97;;;14.50;99.90;;;;;;10402547;28;20371;-72
2022/09/13 03:39:02;;;;;;;7.10;6.40;;;14.50;99.90;;;;;;10406122;28;20222;-71
2022/09/13 03:44:06;;;;;;;6.50;5.90;;;14.60;99.90;;;;;;10404095;28;20400;-72
2022/09/13 03:49:16;;;;;;;6.80;6.13;;;14.70;99.90;;;;;;10404937;28;20269;-72
2022/09/13 03:54:29;;;;;;;9.57;6.90;;;14.80;99.90;;;;;;10405641;28;20257;-72
2022/09/13 03:59:29;;;;;;;8.50;7.03;;;14.90;99.90;;;;;;10404350;28;20600;-75
2022/09/13 04:04:31;;;;;;;7.07;6.37;;;15.00;99.90;;;;;;10406536;28;20239;-71
2022/09/13 04:09:32;;;;;;;11.23;7.30;;;14.90;99.90;;;;;;10405948;28;20223;-74
2022/09/13 04:14:33;;;;;;;8.03;6.73;;;14.80;99.90;;;;;;10403594;28;20602;-72
2022/09/13 04:19:33;;;;;;;8.80;7.90;;;14.80;99.90;;;;;;10402058;28;20228;-73
2022/09/13 04:24:35;;;;;;;10.50;7.77;;;14.90;99.90;;;;;;10391803;28;20285;-73
2022/09/13 04:29:35;;;;;;;9.00;8.10;;;14.90;99.90;;;;;;10412500;28;20221;-72
2022/09/13 04:34:36;;;;;;;8.97;8.00;;;14.90;99.90;;;;;;10391205;28;20232;-72
2022/09/13 04:39:36;;;;;;;9.37;8.33;;;14.90;99.90;;;;;;10405673;28;20240;-72
2022/09/13 04:44:37;;;;;;;8.23;7.43;;;15.00;99.90;;;;;;10397609;28;20292;-72
2022/09/13 04:49:38;;;;;;;11.00;8.73;;;15.00;99.90;;;;;;10410694;28;20579;-72
2022/09/13 04:54:39;;;;;;;9.13;8.20;;;15.00;99.90;;;;;;10403680;28;20566;-69
2022/09/13 04:59:40;;;;;;;9.30;8.30;;;15.00;99.90;;;;;;10421504;28;20212;-73
2022/09/13 05:04:40;;;;;;;9.07;8.17;;;15.10;99.90;;;;;;10404209;28;20231;-73
2022/09/13 05:09:41;;;;;;;8.93;7.43;;;15.00;99.90;;;;;;10407622;28;20300;-73
2022/09/13 05:14:41;;;;;;;8.70;7.90;;;15.00;99.90;;;;;;10414263;28;20304;-72
2022/09/13 05:19:42;;;;;;;19.73;9.93;;;15.10;99.90;;;;;;10404092;28;20594;-73
2022/09/13 05:24:46;;;;;;;10.00;8.60;;;15.20;99.90;;;;;;10400948;28;20735;-73
2022/09/13 05:29:47;;;;;;;10.73;7.73;;;15.20;99.90;;;;;;10402734;28;20762;-73
2022/09/13 05:34:47;;;;;;;9.10;7.90;;;15.20;99.90;;;;;;10396683;28;20247;-72
2022/09/13 05:39:48;;;;;;;12.70;8.97;;;15.40;99.90;;;;;;10398037;28;20782;-72
2022/09/13 05:44:49;;;;;;;11.63;9.00;;;15.50;99.90;;;;;;10402256;28;20700;-72
2022/09/13 05:49:52;;;;;;;11.97;8.40;;;15.50;99.90;;;;;;10393053;28;20271;-71
2022/09/13 05:54:53;;;;;;;10.27;9.17;;;15.60;99.90;;;;;;10401293;28;20220;-71
2022/09/13 05:59:53;;;;;;;11.43;8.57;;;15.60;99.90;;;;;;10398434;28;20232;-71
2022/09/13 06:04:54;;;;;;;12.33;9.33;;;15.80;99.90;;;;;;10395016;28;20260;-70
2022/09/13 06:09:54;;;;;;;10.20;9.13;;;15.90;99.90;;;;;;10399409;28;20212;-71
2022/09/13 06:14:55;;;;;;;12.33;8.70;;;15.90;99.90;;;;;;10396965;28;20248;-71
2022/09/13 06:19:55;;;;;;;9.33;8.53;;;15.90;99.90;;;;;;10401528;28;20259;-71
2022/09/13 06:24:56;;;;;;;12.30;8.87;;;16.00;99.90;;;;;;10413405;28;20312;-71
2022/09/13 06:30:07;;;;;;;11.87;9.63;;;16.10;99.90;;;;;;10394906;28;20216;-72
2022/09/13 06:35:07;;;;;;;9.80;8.90;;;16.20;99.90;;;;;;10390675;28;20275;-71
2022/09/13 06:40:12;;;;;;;14.50;10.13;;;16.30;99.90;;;;;;10400037;28;20696;-72
2022/09/13 06:45:13;;;;;;;10.70;9.67;;;16.40;99.90;;;;;;10406628;28;20228;-72
2022/09/13 06:50:13;;;;;;;11.53;9.93;;;16.40;99.90;;;;;;10396380;28;20189;-72
2022/09/13 06:55:14;;;;;;;11.53;8.73;;;16.40;99.90;;;;;;10395121;28;20221;-72
2022/09/13 07:00:15;;;;;;;10.33;9.03;;;16.40;99.90;;;;;;10392311;28;20213;-72
2022/09/13 07:05:17;;;;;;;9.97;7.93;;;16.50;99.90;;;;;;10420177;28;20232;-69
2022/09/13 07:10:19;;;;;;;11.17;8.43;;;16.60;99.90;;;;;;10408790;28;20202;-70
2022/09/13 07:15:19;;;;;;;8.77;7.53;;;16.70;99.90;;;;;;10409446;28;20193;-69
2022/09/13 07:20:22;;;;;;;9.37;7.70;;;16.90;99.90;;;;;;10396721;28;20203;-70
2022/09/13 07:25:22;;;;;;;8.73;7.87;;;17.10;99.90;;;;;;10400435;28;20214;-69
2022/09/13 07:30:25;;;;;;;12.93;6.47;;;17.30;99.90;;;;;;10400197;28;20185;-69
2022/09/13 07:35:26;;;;;;;7.30;6.57;;;17.40;99.90;;;;;;10404419;28;20228;-70
2022/09/13 07:40:26;;;;;;;10.47;7.07;;;17.60;99.90;;;;;;10405223;28;20222;-70
2022/09/13 07:45:27;;;;;;;9.47;6.50;;;17.80;99.90;;;;;;10405703;28;20229;-69
2022/09/13 07:50:27;;;;;;;8.10;7.10;;;17.90;99.90;;;;;;10395604;28;20230;-69
2022/09/13 07:55:29;;;;;;;9.90;6.90;;;17.80;99.90;;;;;;10406406;28;20230;-69
2022/09/13 08:00:29;;;;;;;10.10;7.73;;;17.70;99.90;;;;;;10399186;28;20237;-69
2022/09/13 08:05:31;;;;;;;8.70;7.50;;;17.40;99.90;;;;;;10402716;28;20773;-69
2022/09/13 08:10:33;;;;;;;8.57;7.77;;;17.40;99.90;;;;;;10421922;28;20708;-69
2022/09/13 08:15:33;;;;;;;9.40;7.63;;;17.50;99.90;;;;;;10413129;28;20219;-69
2022/09/13 08:20:38;;;;;;;8.60;7.80;;;17.80;99.90;;;;;;10407873;28;20219;-70
2022/09/13 08:25:39;;;;;;;9.30;6.87;;;18.30;99.90;;;;;;10414880;28;20231;-69
2022/09/13 08:30:42;;;;;;;8.07;7.17;;;19.20;99.90;;;;;;10404717;28;20319;-69
2022/09/13 08:35:50;;;;;;;10.13;7.43;;;20.20;99.90;;;;;;10409534;28;20265;-70
2022/09/13 08:41:34;;;;;;;8.77;6.80;;;20.90;99.90;;;;;;10398404;28;20223;-69
2022/09/13 08:47:00;;;;;;;13.60;6.97;;;20.90;99.90;;;;;;10383622;28;20319;-70
2022/09/13 08:52:15;;;;;;;7.73;6.93;;;20.90;99.90;;;;;;10391023;28;20252;-69
2022/09/13 08:57:26;;;;;;;9.63;7.10;;;20.70;99.90;;;;;;10396641;28;20275;-69
2022/09/13 09:02:59;;;;;;;10.43;6.80;;;20.60;99.90;;;;;;10415426;28;20769;-69
2022/09/13 09:08:26;;;;;;;7.63;6.83;;;20.50;99.90;;;;;;10403190;28;20224;-70
2022/09/13 09:13:56;;;;;;;9.80;7.40;;;20.40;99.90;;;;;;10401891;28;20224;-69
2022/09/13 09:19:02;;;;;;;10.73;7.50;;;20.00;99.90;;;;;;10420148;28;20216;-68
2022/09/13 09:24:03;;;;;;;11.53;7.93;;;19.50;99.90;;;;;;10394304;28;20228;-69
2022/09/13 09:29:32;;;;;;;10.90;8.77;;;19.40;99.90;;;;;;10404169;28;20304;-69
2022/09/13 09:34:44;;;;;;;12.30;8.00;;;19.40;99.90;;;;;;10408421;28;20590;-69
2022/09/13 09:39:45;;;;;;;12.47;8.77;;;19.50;99.90;;;;;;10399082;28;20221;-68
2022/09/13 09:44:50;;;;;;;10.00;7.67;;;19.80;99.90;;;;;;10396483;28;20230;-69
2022/09/13 09:50:08;;;;;;;12.20;8.77;;;20.00;99.90;;;;;;10401587;28;20321;-69
2022/09/13 09:55:23;;;;;;;12.53;8.33;;;20.10;99.90;;;;;;10399026;28;20223;-70
2022/09/13 10:00:28;;;;;;;10.40;8.27;;;20.60;99.90;;;;;;10400408;28;21756;-70
2022/09/13 10:05:31;;;;;;;11.87;8.70;;;21.10;99.90;;;;;;10397545;28;20286;-69
2022/09/13 10:10:37;;;;;;;8.80;7.63;;;21.00;99.90;;;;;;10405994;28;20240;-70
2022/09/13 10:15:56;;;;;;;12.83;8.70;;;20.80;99.90;;;;;;10402510;28;20243;-70
2022/09/13 10:21:07;;;;;;;8.27;7.20;;;20.70;99.90;;;;;;10390244;28;20223;-69
2022/09/13 10:26:14;;;;;;;8.93;7.60;;;20.90;99.90;;;;;;10394286;28;20946;-69
2022/09/13 10:31:16;;;;;;;7.87;6.77;;;21.00;99.90;;;;;;10397786;28;20232;-71
2022/09/13 10:36:20;;;;;;;8.60;7.73;;;21.10;99.90;;;;;;10390226;28;20214;-68
2022/09/13 10:41:25;;;;;;;14.00;7.30;;;20.90;99.90;;;;;;10390483;28;20225;-70
2022/09/13 10:46:28;;;;;;;10.20;7.37;;;20.50;99.90;;;;;;10404824;28;20231;-69
2022/09/13 10:51:35;;;;;;;9.27;6.93;;;20.40;99.90;;;;;;10399127;28;20233;-69
2022/09/13 10:56:36;;;;;;;7.73;6.23;;;20.30;99.90;;;;;;10397731;28;20222;-69
2022/09/13 11:02:12;;;;;;;7.63;6.03;;;20.50;99.90;;;;;;10394603;28;20217;-71
2022/09/13 11:07:22;;;;;;;7.90;6.00;;;20.90;99.90;;;;;;10411389;28;20582;-68
2022/09/13 11:12:37;;;;;;;7.23;5.60;;;21.60;99.90;;;;;;10392083;28;20228;-70
2022/09/13 11:17:47;;;;;;;8.60;7.70;;;22.10;99.90;;;;;;10394513;28;20707;-70
2022/09/13 11:22:58;;;;;;;9.93;7.20;;;22.40;99.90;;;;;;10413872;28;20216;-69
2022/09/13 11:28:36;;;;;;;8.40;7.50;;;22.30;99.90;;;;;;10394394;28;20279;-69
2022/09/13 11:34:03;;;;;;;10.23;8.20;;;21.90;99.90;;;;;;10391837;28;20216;-70
2022/09/13 11:39:45;;;;;;;10.50;8.27;;;21.70;99.90;;;;;;10393868;28;20221;-70
2022/09/13 11:45:21;;;;;;;7.93;6.73;;;21.70;99.90;;;;;;10409024;28;20219;-70
2022/09/13 11:50:28;;;;;;;10.37;7.73;;;21.80;99.90;;;;;;10401263;28;20205;-69
2022/09/13 11:55:36;;;;;;;12.97;9.67;;;21.90;99.90;;;;;;10405614;28;20315;-70
2022/09/13 12:00:49;;;;;;;11.87;8.53;;;21.90;99.90;;;;;;10398926;28;20911;-70
2022/09/13 12:06:03;;;;;;;12.17;9.77;;;21.50;99.90;;;;;;10406256;28;20235;-70
2022/09/13 12:11:10;;;;;;;10.53;8.37;;;21.40;99.90;;;;;;10410171;28;20239;-70
2022/09/13 12:16:19;;;;;;;11.00;9.03;;;21.60;99.90;;;;;;10407473;28;20311;-70
2022/09/13 12:21:24;;;;;;;8.90;8.00;;;21.90;99.90;;;;;;10398927;28;20233;-70
2022/09/13 12:26:47;;;;;;;9.30;7.53;;;22.00;99.90;;;;;;10400432;28;20679;-71
2022/09/13 12:31:47;;;;;;;9.47;8.33;;;22.20;99.90;;;;;;10398044;28;20221;-69
2022/09/13 12:37:25;;;;;;;10.37;8.03;;;22.40;99.90;;;;;;10402269;28;20213;-72
2022/09/13 12:42:48;;;;;;;12.30;7.63;;;22.30;99.90;;;;;;10404197;28;20262;-72
2022/09/13 12:47:56;;;;;;;8.30;7.20;;;22.20;99.90;;;;;;10408386;28;20315;-72
2022/09/13 12:53:45;;;;;;;7.83;6.57;;;22.10;99.90;;;;;;10402207;28;20304;-73
2022/09/13 12:59:17;;;;;;;7.53;6.83;;;22.00;99.90;;;;;;10389420;28;20554;-72
2022/09/13 13:04:25;;;;;;;9.23;7.07;;;22.10;99.90;;;;;;10407970;28;20242;-71
2022/09/13 13:09:34;;;;;;;10.10;6.93;;;22.20;99.90;;;;;;10411611;28;20231;-71
2022/09/13 13:14:38;;;;;;;7.77;6.13;;;22.50;99.90;;;;;;10397555;28;20244;-72
2022/09/13 13:19:39;;;;;;;11.17;9.47;;;22.60;99.90;;;;;;10416330;28;20712;-72
2022/09/13 13:24:45;;;;;;;7.20;6.37;;;23.10;99.90;;;;;;10411744;28;20259;-71
2022/09/13 13:30:24;;;;;;;11.80;8.33;;;23.60;99.90;;;;;;10390164;28;20206;-71
2022/09/13 13:35:31;;;;;;;10.47;8.00;;;23.90;99.90;;;;;;10393002;28;20215;-71
2022/09/13 13:40:31;;;;;;;9.63;7.90;;;23.70;99.90;;;;;;10403466;28;20209;-71
2022/09/13 13:45:33;;;;;;;9.37;7.40;;;23.40;99.90;;;;;;10397390;28;20227;-71
2022/09/13 13:50:34;;;;;;;8.37;7.57;;;23.00;99.90;;;;;;10398677;28;20727;-72
2022/09/13 13:55:48;;;;;;;11.67;7.93;;;22.70;99.90;;;;;;10388749;28;20237;-71
2022/09/13 14:00:51;;;;;;;8.37;7.53;;;22.60;99.90;;;;;;10394134;28;20227;-71
2022/09/13 14:06:15;;;;;;;9.60;8.20;;;22.70;99.90;;;;;;10387947;28;20324;-71
2022/09/13 14:11:34;;;;;;;12.47;7.50;;;22.90;99.90;;;;;;10388260;28;20228;-72
2022/09/13 14:16:52;;;;;;;12.07;9.50;;;23.00;99.90;;;;;;10402741;28;20753;-71
2022/09/13 14:22:14;;;;;;;10.00;7.77;;;23.00;99.90;;;;;;10398298;28;20228;-71
2022/09/13 14:27:26;;;;;;;12.23;8.00;;;22.90;99.90;;;;;;10397736;28;20285;-71
2022/09/13 14:32:39;;;;;;;7.87;6.43;;;22.90;99.90;;;;;;10388835;28;20255;-71
2022/09/13 14:37:40;;;;;;;6.30;5.57;;;22.90;99.90;;;;;;10401535;28;20221;-72
2022/09/13 14:42:50;;;;;;;9.80;8.03;;;22.80;99.90;;;;;;10393869;28;20688;-71
2022/09/13 14:48:05;;;;;;;7.13;6.43;;;22.60;99.90;;;;;;10399048;28;20924;-72
2022/09/13 14:53:13;;;;;;;9.27;8.30;;;22.50;99.90;;;;;;10396616;28;20297;-71
2022/09/13 14:58:24;;;;;;;13.47;9.93;;;22.40;99.90;;;;;;10392424;28;20213;-71
2022/09/13 15:03:26;;;;;;;10.30;9.27;;;22.30;99.90;;;;;;10393622;28;20223;-71
2022/09/13 15:08:32;;;;;;;11.40;8.93;;;22.20;99.90;;;;;;10391126;28;20249;-71
2022/09/13 15:13:36;;;;;;;8.43;7.07;;;22.10;99.90;;;;;;10404277;28;20691;-71
2022/09/13 15:18:36;;;;;;;12.70;9.63;;;22.00;99.90;;;;;;10388209;28;20217;-71
2022/09/13 15:23:40;;;;;;;9.87;8.77;;;21.90;99.90;;;;;;10399089;28;20632;-70
2022/09/13 15:28:43;;;;;;;10.27;8.67;;;21.90;99.90;;;;;;10391790;28;20343;-71
2022/09/13 15:33:44;;;;;;;11.50;9.53;;;21.80;99.90;;;;;;10399491;28;20215;-71
2022/09/13 15:39:08;;;;;;;11.93;10.67;;;21.70;99.90;;;;;;10387941;28;20748;-70
2022/09/13 15:44:08;;;;;;;16.37;12.87;;;21.40;99.90;;;;;;10392806;28;20235;-69
2022/09/13 15:49:16;;;;;;;17.53;13.50;;;21.20;99.90;;;;;;10389715;28;20219;-70
2022/09/13 15:54:17;;;;;;;15.07;13.47;;;21.00;99.90;;;;;;10391518;28;20723;-71
2022/09/13 15:59:20;;;;;;;15.63;12.87;;;20.90;99.90;;;;;;10384671;28;20250;-71
2022/09/13 16:04:24;;;;;;;14.97;13.30;;;20.80;99.90;;;;;;10393876;28;20260;-72
2022/09/13 16:09:26;;;;;;;16.53;12.30;;;20.70;99.90;;;;;;10389489;28;20220;-71
2022/09/13 16:14:26;;;;;;;19.17;13.70;;;20.70;99.90;;;;;;10390159;28;20994;-71
2022/09/13 16:19:27;;;;;;;11.17;9.03;;;20.60;99.90;;;;;;10386116;28;20286;-71
2022/09/13 16:24:28;;;;;;;8.93;8.03;;;20.60;99.90;;;;;;10386332;28;20648;-70
2022/09/13 16:29:28;;;;;;;7.97;7.10;;;20.50;99.90;;;;;;10403356;28;20265;-73
2022/09/13 16:34:29;;;;;;;10.80;8.43;;;20.50;99.90;;;;;;10392315;28;20750;-70
2022/09/13 16:39:29;;;;;;;9.30;8.20;;;20.50;99.90;;;;;;10397796;28;20626;-70
2022/09/13 16:44:30;;;;;;;8.33;7.40;;;20.40;99.90;;;;;;10400970;28;20682;-69
2022/09/13 16:49:31;;;;;;;7.87;7.07;;;20.40;99.90;;;;;;10400053;28;20220;-70
2022/09/13 16:54:33;;;;;;;10.17;7.07;;;20.40;99.90;;;;;;10399293;28;20248;-70
2022/09/13 16:59:34;;;;;;;6.40;5.60;;;20.30;99.90;;;;;;10396514;28;20216;-70
2022/09/13 17:04:35;;;;;;;7.83;6.30;;;20.30;99.90;;;;;;10394247;28;20232;-69
2022/09/13 17:09:36;;;;;;;14.70;8.00;;;20.30;99.90;;;;;;10399349;28;20709;-70
2022/09/13 17:14:38;;;;;;;8.33;6.83;;;20.30;99.90;;;;;;10396889;28;20222;-70
2022/09/13 17:19:38;;;;;;;7.83;7.03;;;20.30;99.90;;;;;;10396903;28;20224;-71
2022/09/13 17:24:39;;;;;;;9.67;7.87;;;20.20;99.90;;;;;;10395603;28;20231;-71
2022/09/13 17:29:40;;;;;;;8.97;7.57;;;20.20;99.90;;;;;;10395715;28;20621;-71
2022/09/13 17:38:07;;;;;;;7.53;6.83;;;20.10;99.90;;;;;;10449725;28;20547;-71
2022/09/13 17:43:08;;;;;;;8.30;7.40;;;19.90;99.90;;;;;;10456104;28;20223;-69
2022/09/13 17:48:08;;;;;;;11.37;8.20;;;19.80;99.90;;;;;;10439165;28;20215;-72
2022/09/13 17:53:12;;;;;;;9.97;8.97;;;19.70;99.90;;;;;;10425494;28;20221;-72
2022/09/13 17:58:13;;;;;;;14.60;9.67;;;19.70;99.90;;;;;;10436144;28;20242;-72
2022/09/13 18:03:14;;;;;;;12.30;8.87;;;19.60;99.90;;;;;;10438561;28;20586;-72
2022/09/13 18:08:15;;;;;;;14.33;9.37;;;19.60;99.90;;;;;;10435835;28;20274;-73
2022/09/13 18:13:16;;;;;;;11.97;10.67;;;19.50;99.90;;;;;;10439634;28;20765;-73
2022/09/13 18:18:20;;;;;;;17.27;10.03;;;19.40;99.90;;;;;;10434855;28;20225;-73
2022/09/13 18:23:20;;;;;;;10.63;9.50;;;19.40;99.90;;;;;;10438338;28;20217;-73
2022/09/13 18:28:21;;;;;;;15.00;10.10;;;19.40;99.90;;;;;;10435203;28;20228;-73
2022/09/13 18:33:22;;;;;;;13.20;11.00;;;19.30;99.90;;;;;;10441171;28;20237;-73
2022/09/13 18:38:24;;;;;;;12.53;9.80;;;19.20;99.90;;;;;;10432700;28;20235;-72
2022/09/13 18:43:25;;;;;;;13.77;10.93;;;19.30;99.90;;;;;;10435728;28;20242;-73
2022/09/13 18:48:33;;;;;;;17.83;12.50;;;19.20;99.90;;;;;;10414809;28;20701;-72
2022/09/13 18:53:34;;;;;;;13.43;10.60;;;19.20;99.90;;;;;;10400552;28;20714;-72
2022/09/13 18:58:37;;;;;;;15.77;10.57;;;19.20;99.90;;;;;;10407237;28;20274;-74
2022/09/13 19:03:46;;;;;;;13.60;11.37;;;19.30;99.90;;;;;;10413047;28;20277;-73
2022/09/13 19:08:49;;;;;;;12.57;10.57;;;19.20;99.90;;;;;;10408864;28;20223;-73
2022/09/13 19:13:50;;;;;;;12.33;9.73;;;19.20;99.90;;;;;;10407686;28;20231;-72
2022/09/13 19:18:50;;;;;;;11.87;10.37;;;19.30;99.90;;;;;;10406871;28;20218;-72
2022/09/13 19:23:51;;;;;;;11.00;9.70;;;19.30;99.90;;;;;;10400038;28;20248;-73
2022/09/13 19:29:03;;;;;;;12.30;9.57;;;19.30;99.90;;;;;;10408789;28;20285;-72
2022/09/13 19:34:05;;;;;;;11.37;8.33;;;19.30;99.90;;;;;;10407993;28;20643;-72
2022/09/13 19:39:06;;;;;;;12.70;8.77;;;19.30;99.90;;;;;;10412435;28;20211;-72
2022/09/13 19:44:08;;;;;;;10.17;9.00;;;19.30;99.90;;;;;;10409064;28;20315;-73
2022/09/13 19:49:14;;;;;;;8.60;7.70;;;19.20;99.90;;;;;;10408261;28;20243;-73
2022/09/13 19:54:16;;;;;;;11.97;8.07;;;19.30;99.90;;;;;;10398542;28;20287;-73
2022/09/13 19:59:22;;;;;;;8.47;7.67;;;19.20;99.90;;;;;;10410288;28;20223;-73
2022/09/13 20:04:23;;;;;;;9.23;7.67;;;19.30;99.90;;;;;;10403747;28;20272;-73
2022/09/13 20:09:25;;;;;;;10.07;7.33;;;19.20;99.90;;;;;;10408020;28;20689;-73
2022/09/13 20:14:30;;;;;;;9.20;7.73;;;19.20;99.90;;;;;;10404096;28;20222;-71
2022/09/13 20:19:31;;;;;;;11.00;7.80;;;19.20;99.90;;;;;;10386082;28;20231;-72
2022/09/13 20:24:31;;;;;;;8.93;7.60;;;19.20;99.90;;;;;;10399158;28;20232;-73
2022/09/13 20:29:32;;;;;;;6.77;6.17;;;19.20;99.90;;;;;;10405965;28;20219;-73
2022/09/13 20:34:34;;;;;;;8.47;7.10;;;19.20;99.90;;;;;;10399785;28;20244;-72
2022/09/13 20:39:34;;;;;;;9.17;8.10;;;19.20;99.90;;;;;;10385145;28;20274;-70
2022/09/13 20:44:36;;;;;;;9.20;7.10;;;19.20;99.90;;;;;;10399750;28;20620;-72
2022/09/13 20:49:37;;;;;;;11.37;8.57;;;19.20;99.90;;;;;;10402990;28;20878;-72
2022/09/13 20:54:37;;;;;;;9.80;8.33;;;19.20;99.90;;;;;;10398890;28;20223;-72
2022/09/13 20:59:38;;;;;;;11.13;8.93;;;19.10;99.90;;;;;;10397005;28;20588;-71
2022/09/13 21:04:39;;;;;;;10.43;9.30;;;19.10;99.90;;;;;;10405567;28;20231;-71
2022/09/13 21:09:40;;;;;;;12.67;10.70;;;19.10;99.90;;;;;;10387597;28;20220;-70
2022/09/13 21:14:40;;;;;;;15.70;10.20;;;19.10;99.90;;;;;;10392637;28;20236;-71
2022/09/13 21:19:41;;;;;;;11.33;9.30;;;19.10;99.90;;;;;;10399642;28;20652;-72
2022/09/13 21:24:41;;;;;;;10.87;9.13;;;19.10;99.90;;;;;;10389397;28;20774;-70
2022/09/13 21:29:42;;;;;;;10.43;9.27;;;19.10;99.90;;;;;;10400411;28;20571;-70
2022/09/13 21:34:43;;;;;;;11.97;8.53;;;19.00;99.90;;;;;;10402605;28;20282;-71
2022/09/13 21:39:43;;;;;;;9.10;8.30;;;19.00;99.90;;;;;;10393750;28;20696;-70
2022/09/13 21:44:44;;;;;;;8.00;7.30;;;19.10;99.90;;;;;;10406280;28;20837;-71
2022/09/13 21:49:45;;;;;;;9.33;8.40;;;19.10;99.90;;;;;;10394378;28;20222;-71
2022/09/13 21:54:45;;;;;;;11.30;8.67;;;19.10;99.90;;;;;;10398461;28;20245;-72
2022/09/13 21:59:46;;;;;;;13.07;9.30;;;19.00;99.90;;;;;;10387015;28;20615;-73
2022/09/13 22:04:46;;;;;;;12.10;9.73;;;18.90;99.90;;;;;;10392409;28;20224;-72
2022/09/13 22:09:47;;;;;;;9.57;8.67;;;18.90;99.90;;;;;;10389091;28;20230;-71
2022/09/13 22:14:47;;;;;;;9.67;8.70;;;18.90;99.90;;;;;;10389115;28;20751;-71
2022/09/13 22:19:48;;;;;;;8.87;8.07;;;18.90;99.90;;;;;;10390384;28;20225;-67
2022/09/13 22:24:49;;;;;;;11.37;8.10;;;19.00;99.90;;;;;;10411502;28;20229;-71
2022/09/13 22:29:50;;;;;;;8.80;7.90;;;19.00;99.90;;;;;;10400057;28;20244;-68
2022/09/13 22:34:51;;;;;;;9.93;7.47;;;19.10;99.90;;;;;;10394706;28;20314;-71
2022/09/13 22:39:51;;;;;;;9.53;8.60;;;19.10;99.90;;;;;;10402350;28;20354;-77
2022/09/13 22:44:52;;;;;;;9.10;8.30;;;19.10;99.90;;;;;;10399641;28;20236;-75
2022/09/13 22:49:52;;;;;;;10.30;8.80;;;19.10;99.90;;;;;;10402441;28;20242;-78
2022/09/13 22:54:53;;;;;;;10.03;8.90;;;19.10;99.90;;;;;;10413377;28;20234;-75
2022/09/13 22:59:54;;;;;;;8.47;7.67;;;19.10;99.90;;;;;;10413711;28;20213;-75
2022/09/13 23:04:54;;;;;;;12.47;8.80;;;19.10;99.90;;;;;;10411727;28;20255;-77
2022/09/13 23:09:55;;;;;;;9.70;8.80;;;19.00;99.90;;;;;;10405787;28;20279;-76
2022/09/13 23:14:55;;;;;;;11.23;9.70;;;19.00;99.90;;;;;;10394902;28;20231;-75
2022/09/13 23:19:56;;;;;;;10.43;9.43;;;18.90;99.90;;;;;;10407890;28;20222;-75
2022/09/13 23:24:56;;;;;;;9.93;9.03;;;18.90;99.90;;;;;;10401573;28;20368;-78
2022/09/13 23:29:57;;;;;;;10.83;7.90;;;18.90;99.90;;;;;;10360179;28;20223;-74
2022/09/13 23:34:57;;;;;;;10.87;9.17;;;19.00;99.90;;;;;;10405616;28;20226;-73
2022/09/13 23:40:00;;;;;;;10.47;9.47;;;19.00;99.90;;;;;;10405581;28;20314;-74
2022/09/13 23:45:00;;;;;;;9.47;8.67;;;19.00;99.90;;;;;;10406768;28;20283;-74
2022/09/13 23:50:01;;;;;;;8.63;7.73;;;18.90;99.90;;;;;;10415824;28;20235;-75
2022/09/13 23:55:03;;;;;;;12.73;9.00;;;18.90;99.90;;;;;;10401301;28;20232;-76
